Terminal Aerodrome Forecast
Issued by NWS Columbia, SC

Home | Current Version | Previous Version | Text Only | Print | Product List | Glossary On
Versions: 1 2 3 4 5 6 7 8 9 10 11 12 13 14 15 16 17 18 19 20 21 22 23 24 25 26 27 28 29 30
000
FTUS42 KCAE 051738
TAFCAE
TAF
KCAE 051738Z 0518/0618 23008KT P6SM SCT040 SCT120
     FM052000 22012G20KT P6SM VCSH SCT040 BKN120
     FM060000 21008KT P6SM VCSH SCT040 BKN100
     FM060200 VRB03KT P6SM BKN250
     FM061400 24007KT P6SM SCT250=

USA.gov is the U.S. government's official web portal to all federal, state and local government web resources and services.